createdAt,value
2023-05-16T00:01:35.957Z,10.78
2023-05-16T00:04:05.153Z,10.79
2023-05-16T00:06:35.809Z,10.81
2023-05-16T00:09:05.043Z,10.82
2023-05-16T00:11:33.888Z,10.82
2023-05-16T00:14:02.811Z,10.80
2023-05-16T00:16:31.706Z,10.76
2023-05-16T00:19:01.377Z,10.78
2023-05-16T00:21:30.236Z,10.75
2023-05-16T00:24:00.371Z,10.75
2023-05-16T00:26:29.537Z,10.76
2023-05-16T00:28:58.266Z,10.73
2023-05-16T00:31:27.171Z,10.72
2023-05-16T00:33:56.075Z,10.73
2023-05-16T00:36:27.283Z,10.74
2023-05-16T00:38:56.652Z,10.69
2023-05-16T00:41:26.942Z,10.71
2023-05-16T00:43:55.796Z,10.70
2023-05-16T00:46:24.568Z,10.73
2023-05-16T00:48:54.069Z,10.76
2023-05-16T00:51:23.013Z,10.74
2023-05-16T00:53:52.055Z,10.75
2023-05-16T00:56:21.755Z,10.81
2023-05-16T00:58:52.136Z,10.82
2023-05-16T01:01:22.429Z,10.82
2023-05-16T01:03:51.705Z,10.84
2023-05-16T01:06:21.122Z,10.82
2023-05-16T01:08:49.848Z,10.85
2023-05-16T01:11:24.432Z,10.88
2023-05-16T01:14:02.325Z,10.87
2023-05-16T01:16:37.957Z,10.86
2023-05-16T01:19:16.451Z,10.88
2023-05-16T01:21:58.896Z,10.88
2023-05-16T01:24:35.135Z,10.92
2023-05-16T01:27:07.566Z,10.93
2023-05-16T01:29:36.814Z,10.89
2023-05-16T01:32:06.974Z,10.83
2023-05-16T01:34:35.888Z,10.81
2023-05-16T01:37:24.922Z,10.83
2023-05-16T01:39:59.109Z,10.83
2023-05-16T01:42:34.508Z,10.89
2023-05-16T01:45:12.884Z,10.90
2023-05-16T01:47:46.677Z,10.93
2023-05-16T01:50:19.046Z,10.91
2023-05-16T01:52:54.592Z,10.85
2023-05-16T01:55:33.858Z,10.81
2023-05-16T01:58:11.691Z,10.78
2023-05-16T02:00:41.739Z,10.77
2023-05-16T02:03:11.132Z,10.75
2023-05-16T02:05:40.548Z,10.76
2023-05-16T02:08:12.169Z,10.82
2023-05-16T02:10:41.572Z,10.82
2023-05-16T02:13:11.733Z,10.88
2023-05-16T02:15:40.662Z,10.86
2023-05-16T02:18:09.540Z,10.84
2023-05-16T02:20:38.550Z,10.84
2023-05-16T02:23:07.510Z,10.86
2023-05-16T02:25:36.320Z,10.86
2023-05-16T02:28:05.144Z,10.81
2023-05-16T02:30:35.845Z,10.73
2023-05-16T02:33:04.963Z,10.85
2023-05-16T02:35:33.690Z,10.75
2023-05-16T02:38:02.501Z,10.78
2023-05-16T02:40:31.551Z,10.79
2023-05-16T02:43:00.283Z,10.74
2023-05-16T02:45:29.136Z,10.86
2023-05-16T02:47:59.447Z,10.90
2023-05-16T02:50:28.358Z,10.86
2023-05-16T02:52:57.000Z,10.85
2023-05-16T02:55:26.534Z,10.83
2023-05-16T02:57:55.357Z,10.83
2023-05-16T03:00:24.399Z,10.82
2023-05-16T03:02:53.192Z,10.83
2023-05-16T03:05:26.239Z,10.86
2023-05-16T03:07:56.176Z,10.86
2023-05-16T03:10:25.055Z,10.89
2023-05-16T03:12:53.950Z,10.92
2023-05-16T03:15:24.633Z,10.95
2023-05-16T03:17:53.736Z,10.90
2023-05-16T03:20:24.120Z,10.91
2023-05-16T03:22:52.941Z,10.89
2023-05-16T03:25:21.777Z,10.89
2023-05-16T03:27:50.587Z,10.90
2023-05-16T03:30:21.579Z,10.84
2023-05-16T03:32:50.346Z,10.80
2023-05-16T03:35:19.143Z,10.77
2023-05-16T03:37:49.492Z,10.74
2023-05-16T03:40:18.581Z,10.73
2023-05-16T03:42:47.502Z,10.73
2023-05-16T03:45:16.281Z,10.78
2023-05-16T03:47:45.463Z,10.80
2023-05-16T03:50:14.249Z,10.81
2023-05-16T03:52:43.154Z,10.83
2023-05-16T03:55:14.574Z,10.88
2023-05-16T03:57:44.151Z,10.91
2023-05-16T04:00:13.923Z,10.85
2023-05-16T04:02:44.109Z,10.84
2023-05-16T04:05:14.121Z,10.91
2023-05-16T04:07:43.303Z,10.92
2023-05-16T04:10:14.518Z,10.94
2023-05-16T04:12:44.811Z,10.97
2023-05-16T04:15:14.211Z,11.00
2023-05-16T04:17:43.110Z,10.99
2023-05-16T04:20:15.150Z,10.94
2023-05-16T04:22:43.946Z,11.03
2023-05-16T04:25:14.661Z,11.09
2023-05-16T04:27:43.571Z,11.17
2023-05-16T04:30:14.508Z,11.20
2023-05-16T04:32:43.455Z,11.21
2023-05-16T04:35:12.264Z,11.23
2023-05-16T04:37:41.401Z,11.32
2023-05-16T04:40:11.353Z,11.32
2023-05-16T04:42:41.665Z,11.34
2023-05-16T04:45:12.424Z,11.35
2023-05-16T04:47:41.664Z,11.38
2023-05-16T04:50:11.456Z,11.39
2023-05-16T04:52:40.353Z,11.36
2023-05-16T04:55:10.192Z,11.34
2023-05-16T04:57:39.117Z,11.38
2023-05-16T05:00:10.672Z,11.37
2023-05-16T05:02:39.745Z,11.48
2023-05-16T05:05:09.993Z,11.54
2023-05-16T05:07:38.859Z,11.56
2023-05-16T05:10:09.005Z,11.67
2023-05-16T05:12:37.869Z,11.77
2023-05-16T05:15:09.278Z,11.84
2023-05-16T05:17:39.389Z,11.81
2023-05-16T05:20:10.855Z,11.79
2023-05-16T05:22:39.756Z,11.84
2023-05-16T05:25:08.994Z,11.93
2023-05-16T05:27:37.865Z,12.02
2023-05-16T05:30:09.584Z,12.08
2023-05-16T05:32:38.540Z,12.18
2023-05-16T05:35:08.329Z,12.27
2023-05-16T05:37:37.125Z,12.27
2023-05-16T05:40:06.805Z,12.37
2023-05-16T05:42:35.673Z,12.47
2023-05-16T05:45:04.809Z,12.57
2023-05-16T05:47:35.288Z,12.66
2023-05-16T05:50:04.922Z,12.74
2023-05-16T05:52:34.021Z,12.83
2023-05-16T05:55:02.787Z,12.89
2023-05-16T05:57:32.080Z,12.99
2023-05-16T06:00:01.004Z,12.93
2023-05-16T06:02:29.850Z,12.93
2023-05-16T06:05:00.297Z,12.99
2023-05-16T06:07:29.211Z,12.99
2023-05-16T06:09:57.971Z,12.96
2023-05-16T06:12:26.903Z,13.03
2023-05-16T06:14:55.859Z,13.13
2023-05-16T06:17:24.658Z,13.25
2023-05-16T06:19:53.382Z,13.29
2023-05-16T06:22:23.506Z,13.36
2023-05-16T06:24:52.192Z,13.46
2023-05-16T06:27:20.965Z,13.57
2023-05-16T06:29:50.048Z,13.64
2023-05-16T06:32:18.693Z,13.72
2023-05-16T06:34:47.499Z,13.79
2023-05-16T06:37:16.247Z,13.82
2023-05-16T06:39:46.520Z,13.84
2023-05-16T06:42:15.400Z,13.86
2023-05-16T06:44:44.505Z,13.92
2023-05-16T06:47:13.226Z,14.00
2023-05-16T06:49:42.097Z,14.05
2023-05-16T06:52:11.580Z,14.12
2023-05-16T06:54:40.404Z,14.18
2023-05-16T06:57:11.126Z,14.24
2023-05-16T06:59:39.983Z,14.28
2023-05-16T07:02:08.700Z,14.37
2023-05-16T07:04:38.219Z,14.50
2023-05-16T07:07:07.999Z,14.56
2023-05-16T07:09:36.731Z,14.70
2023-05-16T07:12:05.979Z,14.81
2023-05-16T07:14:36.240Z,14.80
2023-05-16T07:17:05.286Z,14.80
2023-05-16T07:19:34.039Z,14.83
2023-05-16T07:22:03.420Z,14.89
2023-05-16T07:24:32.016Z,14.94
2023-05-16T07:27:00.963Z,14.94
2023-05-16T07:29:30.542Z,14.91
2023-05-16T07:32:00.444Z,14.90
2023-05-16T07:34:29.245Z,14.90
2023-05-16T07:36:58.250Z,14.94
2023-05-16T07:39:28.059Z,14.99
2023-05-16T07:41:57.142Z,15.06
2023-05-16T07:44:26.116Z,15.09
2023-05-16T07:46:54.872Z,15.11
2023-05-16T07:49:25.247Z,15.16
2023-05-16T07:51:54.066Z,15.15
2023-05-16T07:54:22.817Z,15.13
2023-05-16T07:56:51.746Z,15.14
2023-05-16T07:59:20.556Z,15.14
2023-05-16T08:01:49.470Z,15.09
2023-05-16T08:04:18.250Z,15.11
2023-05-16T08:06:48.469Z,15.07
2023-05-16T08:09:17.246Z,15.07
2023-05-16T08:11:46.650Z,15.06
2023-05-16T08:14:15.474Z,15.17
2023-05-16T08:16:44.411Z,15.18
2023-05-16T08:19:13.287Z,15.16
2023-05-16T08:21:42.172Z,15.22
2023-05-16T08:24:12.559Z,15.27
2023-05-16T08:26:41.485Z,15.34
2023-05-16T08:29:10.259Z,15.35
2023-05-16T08:31:39.280Z,15.36
2023-05-16T08:34:09.588Z,15.40
2023-05-16T08:36:38.471Z,15.45
2023-05-16T08:39:07.704Z,15.49
2023-05-16T08:41:38.092Z,15.46
2023-05-16T08:44:08.383Z,15.52
2023-05-16T08:46:39.383Z,15.56
2023-05-16T08:49:10.333Z,15.57
2023-05-16T08:51:39.857Z,15.59
2023-05-16T08:54:13.616Z,15.55
2023-05-16T08:56:44.973Z,15.55
2023-05-16T08:59:14.048Z,15.56
2023-05-16T09:01:43.512Z,15.59
2023-05-16T09:04:12.569Z,15.62
2023-05-16T09:06:41.924Z,15.64
2023-05-16T09:09:13.294Z,15.64
2023-05-16T09:11:43.809Z,15.64
2023-05-16T09:14:12.576Z,15.64
2023-05-16T09:16:41.950Z,15.64
2023-05-16T09:19:14.846Z,15.66
2023-05-16T09:21:43.894Z,15.66
2023-05-16T09:24:12.492Z,15.70
2023-05-16T09:26:41.266Z,15.69
2023-05-16T09:29:15.377Z,15.70
2023-05-16T09:31:44.381Z,15.72
2023-05-16T09:34:13.190Z,15.78
2023-05-16T09:36:43.788Z,15.80
2023-05-16T09:39:17.158Z,15.82
2023-05-16T09:41:46.144Z,15.79
2023-05-16T09:44:16.368Z,15.78
2023-05-16T09:46:45.393Z,15.80
2023-05-16T09:49:15.788Z,15.84
2023-05-16T09:51:46.589Z,15.86
2023-05-16T09:54:15.834Z,15.90
2023-05-16T09:56:52.089Z,15.95
2023-05-16T09:59:23.469Z,16.01
2023-05-16T10:01:54.518Z,16.07
2023-05-16T10:04:23.492Z,16.14
2023-05-16T10:06:52.852Z,16.15
2023-05-16T10:09:24.113Z,16.12
2023-05-16T10:11:54.024Z,16.05
2023-05-16T10:14:27.019Z,16.07
2023-05-16T10:16:56.239Z,16.11
2023-05-16T10:19:28.716Z,16.02
2023-05-16T10:22:02.382Z,16.02
2023-05-16T10:24:37.826Z,15.98
2023-05-16T10:27:07.626Z,15.99
2023-05-16T10:29:50.402Z,16.01
2023-05-16T10:32:25.797Z,15.94
2023-05-16T10:34:56.227Z,15.91
2023-05-16T10:37:26.771Z,15.95
2023-05-16T10:39:56.030Z,16.00
2023-05-16T10:42:24.774Z,16.02
2023-05-16T10:45:10.389Z,16.04
2023-05-16T10:47:39.694Z,16.04
2023-05-16T10:50:09.345Z,16.02
2023-05-16T10:52:38.224Z,16.01
2023-05-16T10:55:07.422Z,16.08
2023-05-16T10:57:36.803Z,16.09
2023-05-16T11:00:23.595Z,16.01
2023-05-16T11:02:52.656Z,15.99
2023-05-16T11:05:21.884Z,15.96
2023-05-16T11:08:06.004Z,15.99
2023-05-16T11:10:34.969Z,15.94
2023-05-16T11:13:10.348Z,15.93
2023-05-16T11:15:40.571Z,15.90
2023-05-16T11:18:11.327Z,15.83
2023-05-16T11:20:41.752Z,15.75
2023-05-16T11:23:21.475Z,15.71
2023-05-16T11:25:54.222Z,15.60
2023-05-16T11:28:25.326Z,15.62
2023-05-16T11:30:57.846Z,15.60
2023-05-16T11:33:29.982Z,15.52
2023-05-16T11:36:14.506Z,15.46
2023-05-16T11:38:46.065Z,15.35
2023-05-16T11:41:16.796Z,15.28
2023-05-16T11:43:47.620Z,15.26
2023-05-16T11:46:18.221Z,15.14
2023-05-16T11:48:47.706Z,15.14
2023-05-16T11:51:21.045Z,15.07
2023-05-16T11:53:51.243Z,15.09
2023-05-16T11:56:20.305Z,15.11
2023-05-16T11:58:49.154Z,15.10
2023-05-16T12:01:19.406Z,15.11
2023-05-16T12:03:56.786Z,15.17
2023-05-16T12:06:26.753Z,15.19
2023-05-16T12:08:57.209Z,15.20
2023-05-16T12:11:26.517Z,15.20
2023-05-16T12:13:55.491Z,15.19
2023-05-16T12:16:26.225Z,15.16
2023-05-16T12:18:55.244Z,15.12
2023-05-16T12:21:24.212Z,15.08
2023-05-16T12:23:57.381Z,15.01
2023-05-16T12:26:31.179Z,14.94
2023-05-16T12:29:01.112Z,14.87
2023-05-16T12:31:32.763Z,14.72
2023-05-16T12:34:01.944Z,14.79
2023-05-16T12:36:34.897Z,14.75
2023-05-16T12:39:04.373Z,14.67
2023-05-16T12:41:33.219Z,14.68
2023-05-16T12:44:08.853Z,14.63
2023-05-16T12:46:42.948Z,14.45
2023-05-16T12:49:11.873Z,14.38
2023-05-16T12:51:41.190Z,14.27
2023-05-16T12:54:12.485Z,14.39
2023-05-16T12:56:42.347Z,14.39
2023-05-16T12:59:12.715Z,14.34
2023-05-16T13:01:44.760Z,14.32
2023-05-16T13:04:19.012Z,14.38
2023-05-16T13:06:59.383Z,14.36
2023-05-16T13:09:32.514Z,14.30
2023-05-16T13:12:02.054Z,14.25
2023-05-16T13:14:30.910Z,14.19
2023-05-16T13:17:02.341Z,14.21
2023-05-16T13:19:32.044Z,14.29
2023-05-16T13:22:00.982Z,14.26
2023-05-16T13:24:29.821Z,14.26
2023-05-16T13:27:00.020Z,14.27
2023-05-16T13:29:28.927Z,14.30
2023-05-16T13:31:57.829Z,14.30
2023-05-16T13:34:28.159Z,14.28
2023-05-16T13:36:57.072Z,14.27
2023-05-16T13:39:25.760Z,14.28
2023-05-16T13:41:55.321Z,14.29
2023-05-16T13:44:24.090Z,14.31
2023-05-16T13:46:52.866Z,14.32
2023-05-16T13:49:22.544Z,14.34
2023-05-16T13:51:53.745Z,14.34
2023-05-16T13:54:23.053Z,14.35
2023-05-16T13:56:52.006Z,14.39
2023-05-16T13:59:28.520Z,14.40
2023-05-16T14:02:10.163Z,14.33
2023-05-16T14:04:39.012Z,14.30
2023-05-16T14:07:09.395Z,14.28
2023-05-16T14:09:39.664Z,14.29
2023-05-16T14:12:09.213Z,14.24
2023-05-16T14:14:38.116Z,14.28
2023-05-16T14:17:07.852Z,14.26
2023-05-16T14:19:36.592Z,14.28
2023-05-16T14:22:05.661Z,14.28
2023-05-16T14:24:36.158Z,14.23
2023-05-16T14:27:05.309Z,14.26
2023-05-16T14:29:34.082Z,14.27
2023-05-16T14:32:02.916Z,14.26
2023-05-16T14:34:31.826Z,14.25
2023-05-16T14:37:00.583Z,14.19
2023-05-16T14:39:29.370Z,14.17
2023-05-16T14:41:59.635Z,14.06
2023-05-16T14:44:28.518Z,14.00
2023-05-16T14:46:57.306Z,13.94
2023-05-16T14:49:27.578Z,13.91
2023-05-16T14:51:56.987Z,13.90
2023-05-16T14:54:25.991Z,13.94
2023-05-16T14:56:55.903Z,13.93
2023-05-16T14:59:26.397Z,13.94
2023-05-16T15:01:55.231Z,13.86
2023-05-16T15:04:24.298Z,13.82
2023-05-16T15:06:53.089Z,13.83
2023-05-16T15:09:21.877Z,13.82
2023-05-16T15:11:50.902Z,13.85
2023-05-16T15:14:19.709Z,13.89
2023-05-16T15:16:49.977Z,13.84
2023-05-16T15:19:18.955Z,13.79
2023-05-16T15:21:47.778Z,13.80
2023-05-16T15:24:16.841Z,13.79
2023-05-16T15:26:45.830Z,13.85
2023-05-16T15:29:14.613Z,13.87
2023-05-16T15:31:43.372Z,13.91
2023-05-16T15:34:13.631Z,13.87
2023-05-16T15:36:42.928Z,13.90
2023-05-16T15:39:12.086Z,13.86
2023-05-16T15:42:05.320Z,13.87
2023-05-16T15:44:29.852Z,13.87
2023-05-16T15:46:58.639Z,13.82
2023-05-16T15:49:29.048Z,13.83
2023-05-16T15:51:58.043Z,13.92
2023-05-16T15:54:26.857Z,13.95
2023-05-16T15:56:55.748Z,13.76
2023-05-16T15:59:24.606Z,13.95
2023-05-16T16:01:53.467Z,13.94
2023-05-16T16:04:23.711Z,13.83
2023-05-16T16:06:54.517Z,13.91
2023-05-16T16:09:24.236Z,13.89
2023-05-16T16:11:56.673Z,13.90
2023-05-16T16:14:25.931Z,13.87
2023-05-16T16:16:54.744Z,13.89
2023-05-16T16:19:24.090Z,13.90
2023-05-16T16:21:54.559Z,13.92
2023-05-16T16:24:23.617Z,13.92
2023-05-16T16:26:52.515Z,13.88
2023-05-16T16:29:21.270Z,13.90
2023-05-16T16:31:50.677Z,13.78
2023-05-16T16:34:21.538Z,13.88
2023-05-16T16:36:53.769Z,13.88
2023-05-16T16:39:22.759Z,13.90
2023-05-16T16:41:51.554Z,13.94
2023-05-16T16:44:21.474Z,13.95
2023-05-16T16:46:50.504Z,13.93
2023-05-16T16:49:19.326Z,13.91
2023-05-16T16:51:48.171Z,13.86
2023-05-16T16:54:18.565Z,13.86
2023-05-16T16:56:48.039Z,13.87
2023-05-16T16:59:16.995Z,13.87
2023-05-16T17:01:46.040Z,13.88
2023-05-16T17:04:14.938Z,13.89
2023-05-16T17:06:44.138Z,13.89
2023-05-16T17:09:15.867Z,13.87
2023-05-16T17:11:47.153Z,13.90
2023-05-16T17:14:16.876Z,13.91
2023-05-16T17:16:45.559Z,13.91
2023-05-16T17:19:14.484Z,13.89
2023-05-16T17:21:44.651Z,13.88
2023-05-16T17:24:13.519Z,13.83
2023-05-16T17:26:43.450Z,13.83
2023-05-16T17:29:13.737Z,13.82
2023-05-16T17:31:42.579Z,13.81
2023-05-16T17:34:11.383Z,13.74
2023-05-16T17:36:40.516Z,13.82
2023-05-16T17:39:10.878Z,13.83
2023-05-16T17:41:40.029Z,13.85
2023-05-16T17:44:08.810Z,13.81
2023-05-16T17:46:39.965Z,13.80
2023-05-16T17:49:09.928Z,13.82
2023-05-16T17:51:50.366Z,13.81
2023-05-16T17:54:20.186Z,13.71
2023-05-16T17:56:50.522Z,13.71
2023-05-16T17:59:19.525Z,13.69
2023-05-16T18:01:50.028Z,13.73
2023-05-16T18:04:21.826Z,13.74
2023-05-16T18:06:52.708Z,13.77
2023-05-16T18:09:22.326Z,13.80
2023-05-16T18:11:50.850Z,13.81
2023-05-16T18:14:19.943Z,13.82
2023-05-16T18:16:50.298Z,13.81
2023-05-16T18:19:19.184Z,13.80
2023-05-16T18:21:48.067Z,13.83
2023-05-16T18:24:16.996Z,13.84
2023-05-16T18:26:48.690Z,13.83
2023-05-16T18:29:18.287Z,13.85
2023-05-16T18:31:47.327Z,13.84
2023-05-16T18:34:17.869Z,13.85
2023-05-16T18:36:48.294Z,13.88
2023-05-16T18:39:20.707Z,13.90
2023-05-16T18:41:49.817Z,13.89
2023-05-16T18:44:18.622Z,13.87
2023-05-16T18:46:47.977Z,13.87
2023-05-16T18:49:18.188Z,13.84
2023-05-16T18:51:47.093Z,13.86
2023-05-16T18:54:16.246Z,13.84
2023-05-16T18:56:45.193Z,13.86
2023-05-16T18:59:14.116Z,13.81
2023-05-16T19:01:44.801Z,13.85
2023-05-16T19:04:13.653Z,13.81
2023-05-16T19:06:44.191Z,13.77
2023-05-16T19:09:13.130Z,13.80
2023-05-16T19:11:42.055Z,13.83
2023-05-16T19:14:10.897Z,13.86
2023-05-16T19:16:41.168Z,13.87
2023-05-16T19:19:10.106Z,13.88
2023-05-16T19:21:39.212Z,13.87
2023-05-16T19:24:10.707Z,13.86
2023-05-16T19:26:40.159Z,13.87
2023-05-16T19:29:10.081Z,13.86
2023-05-16T19:31:39.047Z,13.85
2023-05-16T19:34:08.574Z,13.77
2023-05-16T19:36:37.544Z,13.77
2023-05-16T19:39:06.622Z,13.72
2023-05-16T19:41:36.959Z,13.55
2023-05-16T19:44:08.330Z,13.71
2023-05-16T19:46:37.795Z,13.70
2023-05-16T19:49:07.280Z,13.70
2023-05-16T19:51:41.743Z,13.69
2023-05-16T19:54:11.278Z,13.71
2023-05-16T19:56:42.463Z,13.71
2023-05-16T19:59:11.460Z,13.69
2023-05-16T20:04:10.463Z,13.67
2023-05-16T20:06:39.328Z,13.71
2023-05-16T20:09:08.405Z,13.74
2023-05-16T20:11:37.379Z,13.75
2023-05-16T20:14:07.709Z,13.76
2023-05-16T20:16:36.708Z,13.77
2023-05-16T20:19:06.175Z,13.71
2023-05-16T20:21:35.170Z,13.77
2023-05-16T20:24:06.136Z,13.78
2023-05-16T20:26:35.099Z,13.77
2023-05-16T20:29:04.126Z,13.78
2023-05-16T20:31:36.032Z,13.78
2023-05-16T20:34:04.977Z,13.80
2023-05-16T20:36:33.770Z,13.79
2023-05-16T20:39:02.647Z,13.77
2023-05-16T20:41:31.452Z,13.69
2023-05-16T20:44:00.368Z,13.77
2023-05-16T20:46:29.346Z,13.73
2023-05-16T20:48:59.808Z,13.77
2023-05-16T20:51:28.766Z,13.79
2023-05-16T20:53:57.649Z,13.80
2023-05-16T20:56:26.506Z,13.78
2023-05-16T20:58:55.969Z,13.80
2023-05-16T21:01:24.631Z,13.83
2023-05-16T21:03:53.449Z,13.83
2023-05-16T21:06:23.726Z,13.76
2023-05-16T21:08:52.491Z,13.85
2023-05-16T21:11:22.170Z,13.83
2023-05-16T21:13:50.793Z,13.83
2023-05-16T21:16:19.553Z,13.86
2023-05-16T21:18:48.793Z,13.84
2023-05-16T21:21:17.802Z,13.84
2023-05-16T21:23:48.115Z,13.84
2023-05-16T21:26:17.026Z,13.80
2023-05-16T21:31:20.511Z,13.83
2023-05-16T21:33:52.702Z,13.81
2023-05-16T21:36:22.873Z,13.77
2023-05-16T21:38:53.116Z,13.73
2023-05-16T21:41:22.624Z,13.74
2023-05-16T21:43:51.422Z,13.74
2023-05-16T21:46:20.698Z,13.76
2023-05-16T21:48:49.578Z,13.75
2023-05-16T21:51:19.828Z,13.78
2023-05-16T21:53:48.747Z,13.78
2023-05-16T21:56:19.169Z,13.76
2023-05-16T21:58:48.215Z,13.54
2023-05-16T22:01:17.138Z,13.69
2023-05-16T22:03:46.335Z,13.69
2023-05-16T22:06:15.247Z,13.64
2023-05-16T22:08:44.656Z,13.59
2023-05-16T22:11:13.577Z,13.62
2023-05-16T22:13:43.945Z,13.61
2023-05-16T22:16:12.746Z,13.64
2023-05-16T22:18:41.633Z,13.66
2023-05-16T22:21:10.593Z,13.67
2023-05-16T22:23:39.395Z,13.63
2023-05-16T22:26:08.275Z,13.69
2023-05-16T22:28:37.068Z,13.71
2023-05-16T22:31:07.914Z,13.73
2023-05-16T22:33:36.874Z,13.71
2023-05-16T22:36:06.643Z,13.73
2023-05-16T22:38:35.720Z,13.75
2023-05-16T22:41:04.496Z,13.76
2023-05-16T22:43:33.401Z,13.75
2023-05-16T22:46:03.251Z,13.73
2023-05-16T22:48:33.790Z,13.73
2023-05-16T22:51:03.045Z,13.64
2023-05-16T22:53:31.889Z,13.74
2023-05-16T22:56:00.844Z,13.75
2023-05-16T22:58:29.691Z,13.75
2023-05-16T23:00:59.467Z,13.70
2023-05-16T23:03:30.002Z,13.67
2023-05-16T23:06:00.233Z,13.73
2023-05-16T23:08:30.047Z,13.69
2023-05-16T23:10:58.925Z,13.71
2023-05-16T23:13:27.727Z,13.72
2023-05-16T23:15:56.626Z,13.72
2023-05-16T23:18:25.431Z,13.68
2023-05-16T23:20:54.494Z,13.62
2023-05-16T23:23:25.052Z,13.69
2023-05-16T23:25:53.887Z,13.69
2023-05-16T23:28:22.824Z,13.65
2023-05-16T23:30:51.732Z,13.69
2023-05-16T23:33:20.574Z,13.46
2023-05-16T23:35:49.570Z,13.66
2023-05-16T23:38:18.505Z,13.67
2023-05-16T23:40:48.833Z,13.66
2023-05-16T23:43:17.687Z,13.65
2023-05-16T23:45:47.105Z,13.61
2023-05-16T23:48:16.136Z,13.66
2023-05-16T23:50:44.995Z,13.67
2023-05-16T23:53:13.987Z,13.55
2023-05-16T23:55:42.799Z,13.69
2023-05-16T23:58:13.248Z,13.61
